Time;durP1;ratioP1;P1;durP2;ratioP2;P2;SDS_P1;SDS_P2;PMS_P1;PMS_P2;Temp;Humidity;BMP_temperature;BMP_pressure;BME280_temperature;BME280_humidity;BME280_pressure;Samples;Min_cycle;Max_cycle;Signal;HPM_P1;HPM_P2
2023/05/09 00:01:20;;;;;;;;;;;18.20;98.90;;;18.44;64.43;98967.19;4829573;29;118189;-89
2023/05/09 00:07:43;;;;;;;;;;;18.20;99.00;;;18.39;64.45;98953.47;4814264;29;125185;-88
2023/05/09 00:14:34;;;;;;;;;;;18.10;98.90;;;18.34;64.38;98956.53;4831493;29;119637;-89
2023/05/09 00:17:57;;;;;;;;;;;18.10;98.90;;;18.27;64.51;98956.38;4756830;29;124236;-88
2023/05/09 00:20:45;;;;;;;;;;;18.00;98.90;;;18.29;64.54;98957.59;4724202;29;122887;-87
2023/05/09 00:23:30;;;;;;;;;;;18.10;99.00;;;18.27;64.61;98945.97;4714986;29;118681;-88
2023/05/09 00:26:14;;;;;;;;;;;18.00;99.00;;;18.26;64.67;98946.31;4706666;29;116123;-87
2023/05/09 00:28:43;;;;;;;;;;;18.70;99.30;;;18.28;64.77;98941.19;4738453;29;123893;-89
2023/05/09 00:31:14;;;;;;;;;;;18.00;99.10;;;18.29;64.82;98934.41;4732071;29;123331;-88
2023/05/09 00:34:08;;;;;;;;;;;18.00;99.10;;;18.28;64.80;98928.00;4740688;29;119060;-87
2023/05/09 00:37:18;;;;;;;;;;;18.30;99.30;;;18.29;64.95;98926.03;4742704;29;119079;-88
2023/05/09 00:39:59;;;;;;;;;;;18.00;99.20;;;18.27;65.02;98920.81;4741199;29;123615;-88
2023/05/09 00:42:47;;;;;;;;;;;18.00;99.20;;;18.27;65.05;98920.81;4723723;29;122997;-89
2023/05/09 00:46:00;;;;;;;;;;;17.90;99.20;;;18.26;65.00;98927.56;4735991;29;119569;-88
2023/05/09 00:52:07;;;;;;;;;;;18.00;99.30;;;18.24;65.09;98915.09;4846015;29;124920;-89
2023/05/09 00:54:45;;;;;;;;;;;18.00;99.30;;;18.25;65.11;98914.75;4867822;28;123967;-89
2023/05/09 00:57:58;;;;;;;;;;;18.00;99.30;;;18.26;65.00;98909.97;4854757;28;120343;-88
2023/05/09 01:00:35;;;;;;;;;;;17.90;99.30;;;18.26;64.96;98904.38;4854773;29;118962;-88
2023/05/09 01:03:23;;;;;;;;;;;18.00;99.30;;;18.25;64.77;98902.75;4854302;29;124104;-89
2023/05/09 01:10:18;;;;;;;;;;;18.00;99.30;;;18.19;64.89;98902.22;4855370;28;119380;-89
2023/05/09 01:13:33;;;;;;;;;;;17.40;99.00;;;18.18;64.71;98902.56;4838482;28;118199;-89
2023/05/09 01:16:31;;;;;;;;;;;18.00;99.20;;;18.16;64.90;98893.72;4850757;29;123429;-89
2023/05/09 01:19:26;;;;;;;;;;;17.90;99.10;;;18.15;64.67;98892.13;4853491;28;122769;-88
2023/05/09 01:22:36;;;;;;;;;;;17.90;99.20;;;18.12;64.84;98906.81;4853119;29;119618;-89
2023/05/09 01:29:20;;;;;;;;;;;17.90;99.10;;;18.08;64.80;98899.16;4853501;29;125688;-88
2023/05/09 01:32:18;;;;;;;;;;;17.90;99.10;;;18.05;64.94;98899.88;4850355;28;124292;-88
2023/05/09 01:35:25;;;;;;;;;;;17.80;99.10;;;18.02;64.77;98894.97;4852230;29;119747;-87
2023/05/09 01:37:54;;;;;;;;;;;17.80;99.10;;;18.05;64.91;98901.84;4794363;29;117060;-88
2023/05/09 01:40:54;;;;;;;;;;;17.80;99.10;;;18.04;64.64;98897.44;4836851;29;123930;-87
2023/05/09 01:43:47;;;;;;;;;;;17.80;99.10;;;18.03;64.60;98884.63;4836024;29;123189;-88
2023/05/09 01:46:20;;;;;;;;;;;17.80;99.10;;;18.02;64.58;98891.38;4880391;28;119805;-88
2023/05/09 01:48:48;;;;;;;;;;;17.80;99.00;;;18.02;64.58;98892.19;4860167;28;118527;-87
2023/05/09 01:52:05;;;;;;;;;;;16.70;98.50;;;18.01;64.56;98879.38;4872000;28;124137;-89
2023/05/09 01:54:57;;;;;;;;;;;17.80;99.00;;;17.99;64.60;98873.34;4847688;29;123525;-89
2023/05/09 01:57:23;;;;;;;;;;;17.80;99.00;;;17.99;64.50;98884.53;4851875;28;119665;-87
2023/05/09 01:59:55;;;;;;;;;;;17.70;98.90;;;17.99;64.46;98884.53;4832962;29;120809;-88
2023/05/09 02:02:31;;;;;;;;;;;17.70;98.90;;;17.96;64.27;98865.69;4835730;29;124264;-88
2023/05/09 02:05:50;;;;;;;;;;;17.50;98.80;;;17.97;64.24;98866.47;4853866;29;123722;-88
2023/05/09 02:08:31;;;;;;;;;;;16.90;98.50;;;17.94;64.34;98870.81;4838505;29;119910;-88
2023/05/09 02:10:58;;;;;;;;;;;17.70;98.90;;;17.94;64.44;98879.19;4844636;28;118490;-88
2023/05/09 02:13:24;;;;;;;;;;;17.70;98.80;;;17.93;64.34;98883.16;4867063;28;124146;-88
2023/05/09 02:16:32;;;;;;;;;;;17.70;98.80;;;17.90;64.46;98889.50;4870441;28;122940;-88
2023/05/09 02:18:58;;;;;;;;;;;17.60;98.80;;;17.91;64.42;98890.28;4840100;29;120419;-89
2023/05/09 02:21:55;;;;;;;;;;;17.70;98.90;;;17.88;64.56;98883.44;4847768;29;120367;-88
2023/05/09 02:24:21;;;;;;;;;;;17.60;98.90;;;17.87;64.49;98888.22;4836324;29;124812;-89
2023/05/09 02:26:54;;;;;;;;;;;17.60;98.80;;;17.88;64.44;98891.81;4820935;29;123385;-89
2023/05/09 02:36:45;;;;;;;;;;;17.60;99.00;;;17.91;64.64;98882.72;4813691;29;117190;-89
2023/05/09 02:42:35;;;;;;;;;;;17.60;99.00;;;17.86;64.83;98883.78;4814271;29;120511;-87
2023/05/09 02:45:12;;;;;;;;;;;17.60;99.00;;;17.86;64.86;98880.19;4812519;29;118861;-89
2023/05/09 02:47:44;;;;;;;;;;;17.60;99.10;;;17.84;64.91;98866.59;4818599;29;122823;-88
2023/05/09 02:50:26;;;;;;;;;;;17.50;99.10;;;17.83;64.83;98858.53;4807702;29;124809;-87
2023/05/09 02:52:57;;;;;;;;;;;17.60;99.10;;;17.84;64.76;98871.38;4813315;29;120271;-89
2023/05/09 02:59:25;;;;;;;;;;;17.50;99.10;;;17.71;64.84;98864.19;4834246;29;124778;-88
2023/05/09 03:02:00;;;;;;;;;;;17.40;99.00;;;17.65;64.62;98853.28;4829159;29;124239;-88
2023/05/09 03:05:01;;;;;;;;;;;17.40;99.00;;;17.63;64.99;98849.22;4833801;29;120090;-88
2023/05/09 03:11:43;;;;;;;;;;;17.40;99.00;;;17.58;64.80;98847.50;4849304;28;124918;-87
2023/05/09 03:14:15;;;;;;;;;;;17.30;98.90;;;17.56;64.92;98849.81;4818261;29;124055;-88
2023/05/09 03:17:43;;;;;;;;;;;17.40;99.10;;;17.51;65.04;98847.28;4817967;29;119484;-88
2023/05/09 03:20:31;;;;;;;;;;;17.30;99.00;;;17.53;65.06;98842.16;4795998;29;118289;-88
2023/05/09 03:26:58;;;;;;;;;;;17.30;99.00;;;17.50;65.09;98848.47;4785788;29;124066;-87
2023/05/09 03:29:26;;;;;;;;;;;17.30;99.00;;;17.51;65.01;98840.91;4778484;29;118853;-89
2023/05/09 03:31:55;;;;;;;;;;;17.30;99.00;;;17.50;64.92;98836.50;4778962;29;116949;-88
2023/05/09 03:34:36;;;;;;;;;;;17.30;99.00;;;17.48;65.07;98834.03;4794990;29;123578;-88
2023/05/09 03:37:02;;;;;;;;;;;17.30;99.00;;;17.48;65.09;98827.66;4797543;29;124295;-88
2023/05/09 03:40:00;;;;;;;;;;;17.20;98.90;;;17.44;65.09;98833.16;4782276;29;119335;-88
2023/05/09 03:43:01;;;;;;;;;;;17.30;99.00;;;17.41;64.99;98833.88;4797824;29;118897;-89
2023/05/09 03:45:37;;;;;;;;;;;17.20;99.00;;;17.40;65.11;98833.03;4824238;29;126855;-88
2023/05/09 03:48:34;;;;;;;;;;;17.20;99.00;;;17.41;65.12;98836.66;4813298;29;123920;-88
2023/05/09 03:51:01;;;;;;;;;;;17.20;99.10;;;17.42;65.03;98833.50;4815802;29;120218;-87
2023/05/09 03:54:07;;;;;;;;;;;17.20;99.10;;;17.42;65.07;98827.09;4814948;29;119020;-88
2023/05/09 03:56:47;;;;;;;;;;;17.20;99.10;;;17.41;65.18;98831.06;4865247;28;124594;-90
2023/05/09 03:59:24;;;;;;;;;;;17.20;99.10;;;17.41;65.09;98831.06;4871709;28;124037;-87
2023/05/09 04:01:57;;;;;;;;;;;17.20;99.10;;;17.37;65.30;98824.56;4876641;28;119506;-89
2023/05/09 04:04:46;;;;;;;;;;;17.20;99.10;;;17.34;65.51;98837.25;4911233;28;118732;-87
2023/05/09 04:08:08;;;;;;;;;;;17.20;99.10;;;17.29;65.16;98828.31;4911762;28;124220;-89
2023/05/09 04:10:44;;;;;;;;;;;17.10;99.10;;;17.22;65.34;98828.94;4903531;28;123839;-89
2023/05/09 04:13:10;;;;;;;;;;;17.00;99.10;;;17.21;65.24;98821.72;4914165;28;119498;-87
2023/05/09 04:16:03;;;;;;;;;;;17.00;99.00;;;17.22;65.50;98826.13;4902039;28;118319;-89
2023/05/09 04:18:56;;;;;;;;;;;17.00;99.10;;;17.22;65.46;98832.56;4909513;28;124460;-89
2023/05/09 04:22:06;;;;;;;;;;;17.00;99.20;;;17.22;65.36;98824.19;4910808;28;123957;-89
2023/05/09 04:28:15;;;;;;;;;;;17.00;99.20;;;17.20;65.32;98832.09;4799003;29;118307;-88
2023/05/09 04:30:44;;;;;;;;;;;17.00;99.20;;;17.18;65.30;98828.84;4796214;29;124756;-89
2023/05/09 04:33:23;;;;;;;;;;;16.90;99.10;;;17.16;65.33;98825.56;4799143;29;123170;-87
2023/05/09 04:35:50;;;;;;;;;;;16.90;99.10;;;17.20;65.36;98826.50;4796271;29;119522;-88
2023/05/09 04:39:07;;;;;;;;;;;17.00;99.10;;;17.21;65.30;98828.13;4837950;29;117999;-89
2023/05/09 04:41:43;;;;;;;;;;;15.50;98.50;;;17.23;65.26;98825.78;4801298;29;124922;-90
2023/05/09 04:44:09;;;;;;;;;;;16.60;99.00;;;17.21;65.31;98828.13;4784652;29;122948;-87
2023/05/09 04:46:57;;;;;;;;;;;16.90;99.10;;;17.22;65.20;98829.75;4794810;29;121519;-87
2023/05/09 04:49:24;;;;;;;;;;;17.00;99.20;;;17.23;65.26;98836.97;4804010;29;120106;-88
2023/05/09 04:52:08;;;;;;;;;;;17.00;99.10;;;17.25;65.24;98836.63;4794823;29;124091;-88
2023/05/09 04:55:06;;;;;;;;;;;17.00;99.10;;;17.25;65.20;98849.75;4797606;29;122496;-89
2023/05/09 04:58:33;;;;;;;;;;;16.90;99.10;;;17.28;65.08;98837.88;4797465;29;119943;-88
2023/05/09 05:01:22;;;;;;;;;;;17.00;99.10;;;17.28;64.95;98835.91;4776113;29;118929;-87
2023/05/09 05:03:58;;;;;;;;;;;17.00;99.10;;;17.31;65.09;98837.97;4732180;29;124395;-88
2023/05/09 05:06:24;;;;;;;;;;;17.10;99.10;;;17.33;64.92;98829.22;4774961;29;124449;-88
2023/05/09 05:09:30;;;;;;;;;;;17.10;99.10;;;17.37;64.93;98830.94;4759608;29;118882;-87
2023/05/09 05:12:11;;;;;;;;;;;17.10;99.10;;;17.42;64.73;98827.91;4773700;29;118363;-88
2023/05/09 05:14:37;;;;;;;;;;;17.10;99.20;;;17.47;65.00;98826.03;4776111;29;125964;-89
2023/05/09 05:17:58;;;;;;;;;;;17.30;99.30;;;17.45;64.85;98826.38;4773440;29;123966;-89
2023/05/09 05:20:24;;;;;;;;;;;17.10;99.30;;;17.44;65.03;98825.56;4797650;29;119464;-87
2023/05/09 05:23:07;;;;;;;;;;;17.10;99.20;;;17.48;64.92;98824.84;4849457;29;118903;-90
2023/05/09 05:25:49;;;;;;;;;;;17.10;99.30;;;17.49;64.96;98821.72;4834872;29;124452;-89
2023/05/09 05:28:45;;;;;;;;;;;17.10;99.30;;;17.52;64.93;98821.00;4838897;29;124454;-89
2023/05/09 05:34:34;;;;;;;;;;;17.20;99.30;;;17.59;64.84;98817.56;4832977;29;119453;-90
2023/05/09 05:37:00;;;;;;;;;;;17.20;99.20;;;17.62;64.78;98808.47;4830903;29;124205;-90
2023/05/09 05:39:29;;;;;;;;;;;17.20;99.20;;;17.67;64.74;98814.59;4833251;29;123778;-87
2023/05/09 05:41:55;;;;;;;;;;;17.30;99.20;;;17.71;64.76;98811.09;4827576;29;121096;-89
2023/05/09 05:44:22;;;;;;;;;;;17.30;99.10;;;17.73;64.46;98814.31;4826434;29;120046;-87
2023/05/09 05:46:56;;;;;;;;;;;17.40;99.10;;;17.74;64.11;98810.38;4847743;29;124403;-87
2023/05/09 05:49:33;;;;;;;;;;;17.30;99.00;;;17.72;64.28;98810.72;4865812;28;123937;-89
2023/05/09 05:51:59;;;;;;;;;;;17.30;99.00;;;17.74;64.19;98807.59;4889043;28;119498;-87
2023/05/09 05:54:29;;;;;;;;;;;17.40;98.90;;;17.75;64.15;98806.41;4887885;28;119337;-87
2023/05/09 05:56:58;;;;;;;;;;;17.40;98.90;;;17.78;64.13;98802.88;4887707;28;124082;-86
2023/05/09 05:59:24;;;;;;;;;;;17.50;98.90;;;17.80;64.02;98803.38;4880586;28;124180;-88
2023/05/09 06:01:53;;;;;;;;;;;17.40;98.90;;;17.85;64.19;98809.50;4891399;28;119611;-88
2023/05/09 06:04:20;;;;;;;;;;;17.50;98.90;;;17.91;64.04;98814.81;4888478;28;117102;-89
2023/05/09 06:06:47;;;;;;;;;;;17.50;98.90;;;17.97;63.92;98797.41;4907242;28;124038;-89
2023/05/09 06:09:19;;;;;;;;;;;17.60;98.90;;;18.04;63.77;98803.19;4900372;28;123970;-89
2023/05/09 06:11:46;;;;;;;;;;;17.60;98.90;;;18.13;63.52;98799.38;4903873;28;119785;-90
2023/05/09 06:14:23;;;;;;;;;;;17.70;98.90;;;18.22;63.31;98795.22;4909120;28;118238;-90
2023/05/09 06:16:54;;;;;;;;;;;17.70;98.90;;;18.30;63.23;98791.41;4869098;28;123264;-90
2023/05/09 06:19:23;;;;;;;;;;;19.20;99.40;;;18.36;62.79;98791.94;4904568;28;122469;-90
2023/05/09 06:21:49;;;;;;;;;;;17.90;98.70;;;18.38;62.61;98784.00;4906371;28;119731;-90
2023/05/09 06:24:18;;;;;;;;;;;16.30;97.80;;;18.41;62.42;98790.84;4908710;28;117575;-89
2023/05/09 06:26:45;;;;;;;;;;;17.90;98.50;;;18.43;62.72;98780.09;4910574;28;123700;-89
2023/05/09 06:29:13;;;;;;;;;;;18.00;98.40;;;18.47;62.15;98781.00;4909389;28;125395;-90
2023/05/09 06:31:44;;;;;;;;;;;18.00;98.30;;;18.49;61.21;98781.44;4906769;28;119715;-90
2023/05/09 06:34:11;;;;;;;;;;;18.00;97.80;;;18.50;60.96;98783.06;4906486;28;119685;-91
2023/05/09 06:36:37;;;;;;;;;;;18.00;97.60;;;18.50;60.65;98774.66;4907578;28;124477;-89
2023/05/09 06:39:05;;;;;;;;;;;18.00;97.40;;;18.51;60.30;98779.91;4906181;28;123047;-90
2023/05/09 06:41:31;;;;;;;;;;;18.10;97.20;;;18.50;60.03;98769.88;4895030;28;119360;-89
2023/05/09 06:43:58;;;;;;;;;;;18.10;97.00;;;18.48;60.10;98766.66;4900429;28;119102;-90
2023/05/09 06:46:24;;;;;;;;;;;18.10;97.10;;;18.49;60.34;98768.25;4904408;28;124374;-88
2023/05/09 06:48:56;;;;;;;;;;;18.10;97.00;;;18.51;60.22;98771.50;4899555;28;124381;-88
2023/05/09 06:51:22;;;;;;;;;;;18.20;96.90;;;18.52;60.28;98772.31;4902161;28;119524;-89
2023/05/09 06:53:48;;;;;;;;;;;18.20;96.90;;;18.57;60.12;98776.81;4897330;28;118689;-89
2023/05/09 06:56:18;;;;;;;;;;;18.20;96.80;;;18.61;59.92;98772.91;4906140;28;123863;-89
2023/05/09 06:58:45;;;;;;;;;;;18.20;96.70;;;18.64;59.65;98762.97;4901210;28;124198;-91
2023/05/09 07:01:11;;;;;;;;;;;18.30;96.70;;;18.70;59.59;98761.50;4896183;28;119858;-89
2023/05/09 07:03:37;;;;;;;;;;;18.30;96.60;;;18.72;59.25;98759.13;4901913;28;118678;-90
2023/05/09 07:06:07;;;;;;;;;;;18.30;96.40;;;18.74;59.08;98752.03;4897924;28;124264;-89
2023/05/09 07:08:35;;;;;;;;;;;18.40;96.40;;;18.77;58.89;98754.06;4896785;28;124345;-90
2023/05/09 07:11:05;;;;;;;;;;;18.40;96.20;;;18.81;58.62;98754.16;4889011;28;118815;-90
2023/05/09 07:13:31;;;;;;;;;;;18.40;96.00;;;18.84;58.55;98753.44;4901111;28;119377;-90
2023/05/09 07:15:57;;;;;;;;;;;18.50;96.00;;;18.90;58.20;98748.34;4912122;28;124231;-90
2023/05/09 07:18:26;;;;;;;;;;;18.50;95.90;;;18.96;57.99;98747.66;4908126;28;124126;-90
2023/05/09 07:20:55;;;;;;;;;;;18.60;95.70;;;19.02;57.67;98739.78;4908496;28;120213;-89
2023/05/09 07:23:21;;;;;;;;;;;18.60;95.60;;;19.07;57.49;98739.47;4901456;28;118123;-89
2023/05/09 07:25:48;;;;;;;;;;;18.60;95.40;;;19.12;57.35;98738.38;4906572;28;124673;-90
2023/05/09 07:28:17;;;;;;;;;;;18.70;95.40;;;19.17;56.87;98719.25;4912000;28;124416;-90
2023/05/09 07:30:44;;;;;;;;;;;18.70;95.20;;;19.22;56.52;98712.53;4901655;28;119676;-91
2023/05/09 07:33:11;;;;;;;;;;;18.80;95.10;;;19.31;56.23;98707.50;4900208;28;118869;-92
2023/05/09 07:35:43;;;;;;;;;;;18.80;94.80;;;19.38;55.98;98701.22;4903373;28;123476;-91
2023/05/09 07:38:09;;;;;;;;;;;18.90;94.80;;;19.46;56.30;98704.97;4891978;28;122565;-89
2023/05/09 07:40:37;;;;;;;;;;;18.90;94.80;;;19.52;55.70;98692.25;4906956;28;119709;-91
2023/05/09 07:43:05;;;;;;;;;;;19.00;94.70;;;19.60;55.21;98691.97;4892512;28;117779;-90
2023/05/09 07:45:31;;;;;;;;;;;19.00;94.40;;;19.64;54.59;98690.06;4901295;28;125530;-90
2023/05/09 07:48:00;;;;;;;;;;;19.00;94.00;;;19.67;53.84;98687.72;4896692;28;123851;-89
2023/05/09 07:50:32;;;;;;;;;;;19.10;93.70;;;19.74;54.02;98677.41;4899962;28;119649;-89
2023/05/09 07:52:58;;;;;;;;;;;19.20;93.90;;;19.85;53.98;98671.97;4906734;28;119148;-89
2023/05/09 07:55:25;;;;;;;;;;;19.30;94.00;;;19.92;53.87;98674.88;4909897;28;123173;-91
2023/05/09 07:57:53;;;;;;;;;;;19.30;93.60;;;20.00;53.74;98675.81;4902560;28;123966;-89
2023/05/09 08:00:22;;;;;;;;;;;19.40;93.60;;;20.07;53.93;98670.31;4903641;28;119760;-89
2023/05/09 08:02:55;;;;;;;;;;;19.50;93.60;;;20.19;54.00;98661.66;4906909;28;118902;-91
2023/05/09 08:05:21;;;;;;;;;;;19.60;93.60;;;20.30;53.44;98662.59;4894910;28;123246;-90
2023/05/09 08:07:48;;;;;;;;;;;19.70;93.70;;;20.42;53.93;98657.94;4897790;28;123813;-89
2023/05/09 08:10:17;;;;;;;;;;;19.80;93.60;;;20.52;53.22;98640.41;4895366;28;120382;-90
2023/05/09 08:12:43;;;;;;;;;;;19.90;93.50;;;20.60;53.57;98641.31;4897315;28;119294;-89
2023/05/09 08:15:10;;;;;;;;;;;20.00;93.50;;;20.70;52.85;98635.84;4903689;28;124268;-86
2023/05/09 08:17:36;;;;;;;;;;;20.10;93.30;;;20.74;52.63;98635.88;4906428;28;123728;-92
2023/05/09 08:20:07;;;;;;;;;;;20.10;93.20;;;20.76;52.41;98632.69;4906613;28;118825;-88
2023/05/09 08:22:34;;;;;;;;;;;20.20;93.20;;;20.78;52.41;98628.28;4896154;28;119450;-89
2023/05/09 08:25:00;;;;;;;;;;;20.20;92.90;;;20.82;52.32;98625.53;4904891;28;124892;-90
2023/05/09 08:27:31;;;;;;;;;;;20.30;93.00;;;20.86;51.94;98623.56;4907256;28;123905;-88
2023/05/09 08:30:00;;;;;;;;;;;20.40;92.70;;;20.90;52.02;98619.59;4908399;28;119049;-87
2023/05/09 08:32:29;;;;;;;;;;;20.40;92.50;;;20.96;51.63;98603.22;4909525;28;118677;-88
2023/05/09 08:34:55;;;;;;;;;;;20.40;92.60;;;21.01;51.96;98611.28;4905852;28;124247;-87
2023/05/09 08:37:21;;;;;;;;;;;20.50;92.70;;;21.04;51.82;98602.09;4905212;28;124119;-90
2023/05/09 08:39:48;;;;;;;;;;;20.60;92.50;;;21.11;51.95;98599.31;4906061;28;119520;-89
2023/05/09 08:42:21;;;;;;;;;;;20.70;92.60;;;21.21;52.23;98592.19;4911052;28;116540;-88
2023/05/09 08:44:47;;;;;;;;;;;20.70;92.60;;;21.29;51.59;98588.22;4908492;28;124828;-87
2023/05/09 08:47:19;;;;;;;;;;;20.80;92.60;;;21.37;51.69;98583.47;4909975;28;123343;-87
2023/05/09 08:49:48;;;;;;;;;;;20.80;92.40;;;21.44;51.34;98589.19;4894432;28;118374;-88
2023/05/09 08:52:20;;;;;;;;;;;20.90;92.50;;;21.51;51.24;98594.84;4906043;28;118777;-88
2023/05/09 08:54:47;;;;;;;;;;;21.00;92.40;;;21.55;51.14;98587.25;4899038;28;123983;-89
2023/05/09 08:57:19;;;;;;;;;;;21.00;92.30;;;21.59;50.41;98581.66;4896127;28;123246;-87
2023/05/09 08:59:47;;;;;;;;;;;21.10;91.90;;;21.60;50.67;98592.50;4918024;28;120240;-87
2023/05/09 09:02:17;;;;;;;;;;;21.00;92.00;;;21.68;50.14;98595.34;4892793;28;119543;-89
2023/05/09 09:04:44;;;;;;;;;;;21.00;91.60;;;21.69;49.92;98591.38;4894623;28;123977;-89
2023/05/09 09:07:11;;;;;;;;;;;21.10;91.50;;;21.67;49.83;98591.75;4902879;28;124013;-86
2023/05/09 09:09:47;;;;;;;;;;;21.10;91.50;;;21.66;49.90;98590.13;4895101;28;120079;-89
2023/05/09 09:12:17;;;;;;;;;;;21.20;91.50;;;21.67;50.10;98582.50;4902570;28;118893;-91
2023/05/09 09:14:56;;;;;;;;;;;21.20;91.50;;;21.69;50.22;98582.94;4908431;28;123362;-89
2023/05/09 09:17:26;;;;;;;;;;;21.20;91.40;;;21.69;50.47;98575.28;4907187;28;124009;-90
2023/05/09 09:19:58;;;;;;;;;;;21.20;91.80;;;21.72;50.42;98579.31;4911193;28;118093;-90
2023/05/09 09:22:32;;;;;;;;;;;21.20;91.40;;;21.72;50.23;98570.88;4900625;28;117978;-91
2023/05/09 09:25:17;;;;;;;;;;;21.30;91.40;;;21.74;50.28;98574.91;4902472;28;124399;-90
2023/05/09 09:27:45;;;;;;;;;;;21.30;91.40;;;21.80;50.63;98552.84;4898237;28;123081;-89
2023/05/09 09:30:12;;;;;;;;;;;21.40;91.50;;;21.88;50.45;98554.50;4907359;28;119355;-89
2023/05/09 09:32:41;;;;;;;;;;;21.50;91.60;;;21.96;50.08;98558.97;4925290;28;118013;-87
2023/05/09 09:35:19;;;;;;;;;;;21.50;91.30;;;22.02;49.46;98556.56;4894775;28;123737;-89
2023/05/09 09:37:45;;;;;;;;;;;21.50;91.10;;;22.01;49.38;98543.72;4907328;28;123766;-89
2023/05/09 09:40:19;;;;;;;;;;;21.50;91.10;;;22.04;49.74;98543.72;4904760;28;119446;-89
2023/05/09 09:42:46;;;;;;;;;;;21.60;91.10;;;22.03;48.85;98542.13;4903331;28;117765;-88
2023/05/09 09:45:18;;;;;;;;;;;21.60;90.70;;;22.05;49.17;98534.06;4908749;28;124132;-90
2023/05/09 09:47:46;;;;;;;;;;;21.60;90.80;;;22.12;49.30;98526.88;4907455;28;124160;-89
2023/05/09 09:50:23;;;;;;;;;;;21.70;90.80;;;22.15;48.95;98526.06;4906980;28;121023;-91
2023/05/09 09:52:59;;;;;;;;;;;21.70;90.70;;;22.19;48.65;98526.91;4905368;28;119795;-88
2023/05/09 09:55:33;;;;;;;;;;;21.70;90.60;;;22.20;48.28;98512.44;4886127;28;123655;-89
2023/05/09 09:58:00;;;;;;;;;;;21.70;90.30;;;22.24;48.42;98506.81;4902694;28;123746;-89
2023/05/09 10:00:31;;;;;;;;;;;21.80;90.30;;;22.26;48.19;98493.16;4892051;28;118461;-87
2023/05/09 10:02:58;;;;;;;;;;;21.80;90.20;;;22.29;48.51;98489.56;4897192;28;119055;-88
2023/05/09 10:05:29;;;;;;;;;;;21.80;90.30;;;22.37;48.84;98496.00;4903204;28;123536;-90
2023/05/09 10:08:08;;;;;;;;;;;21.90;90.40;;;22.44;48.16;98493.22;4880591;28;123600;-85
2023/05/09 10:10:42;;;;;;;;;;;22.00;90.40;;;22.49;48.70;98490.00;4914945;28;119895;-85
2023/05/09 10:13:10;;;;;;;;;;;22.00;90.40;;;22.56;48.11;98489.19;4902642;28;118825;-84
2023/05/09 10:15:42;;;;;;;;;;;22.10;90.10;;;22.58;47.65;98475.53;4914819;28;124316;-85
2023/05/09 10:18:13;;;;;;;;;;;22.10;90.00;;;22.59;47.73;98477.13;4901094;28;125109;-86
2023/05/09 10:20:45;;;;;;;;;;;22.10;90.00;;;22.65;47.17;98467.88;4907617;28;118654;-86
2023/05/09 10:23:12;;;;;;;;;;;22.10;89.00;;;22.67;47.40;98467.47;4909452;28;118769;-86
2023/05/09 10:26:05;;;;;;;;;;;22.20;89.50;;;22.65;47.24;98458.66;4903469;28;124239;-85
2023/05/09 10:28:33;;;;;;;;;;;22.20;89.30;;;22.69;47.39;98459.44;4891635;28;122683;-86
2023/05/09 10:31:31;;;;;;;;;;;22.30;89.50;;;22.73;47.77;98457.44;4893140;28;119367;-86
2023/05/09 10:34:08;;;;;;;;;;;22.40;89.70;;;22.81;47.38;98450.59;4894571;28;118786;-85
2023/05/09 10:36:35;;;;;;;;;;;22.40;89.20;;;22.85;47.26;98451.38;4896701;28;124404;-84
2023/05/09 10:39:03;;;;;;;;;;;22.40;89.40;;;22.87;46.96;98448.97;4898398;28;123566;-85
2023/05/09 10:41:30;;;;;;;;;;;22.50;89.00;;;22.89;47.34;98435.28;4913100;28;119780;-84
2023/05/09 10:43:57;;;;;;;;;;;22.50;88.90;;;22.89;47.12;98428.81;4900516;28;119860;-84
2023/05/09 10:46:27;;;;;;;;;;;22.50;88.70;;;22.92;47.18;98437.28;4916877;28;123346;-86
2023/05/09 10:48:56;;;;;;;;;;;22.60;88.70;;;22.94;46.90;98434.88;4899946;28;123991;-85
2023/05/09 10:51:23;;;;;;;;;;;22.60;88.50;;;22.98;47.26;98420.00;4904840;28;119230;-86
2023/05/09 10:53:56;;;;;;;;;;;22.60;88.70;;;23.02;46.86;98426.44;4901399;28;117530;-86
2023/05/09 10:56:32;;;;;;;;;;;22.60;88.50;;;23.05;47.22;98411.53;4906787;28;124558;-85
2023/05/09 10:59:05;;;;;;;;;;;22.60;88.70;;;23.11;47.22;98407.91;4896463;28;123357;-89
2023/05/09 11:01:38;;;;;;;;;;;22.70;89.00;;;23.14;46.79;98407.09;4910501;28;119439;-88
2023/05/09 11:04:14;;;;;;;;;;;22.70;88.20;;;23.17;46.46;98402.66;4906274;28;118736;-89
2023/05/09 11:06:41;;;;;;;;;;;22.70;88.20;;;23.19;46.32;98391.78;4906235;28;125615;-87
2023/05/09 11:09:29;;;;;;;;;;;22.70;87.90;;;23.25;46.55;98390.16;4907271;28;124282;-89
2023/05/09 11:12:04;;;;;;;;;;;22.80;88.00;;;23.32;46.73;98384.50;4906111;28;119586;-88
2023/05/09 11:14:36;;;;;;;;;;;22.80;88.10;;;23.41;45.82;98374.78;4907419;28;118953;-88
2023/05/09 11:17:09;;;;;;;;;;;23.00;87.40;;;23.47;45.69;98378.78;4905329;28;124556;-89
2023/05/09 11:19:43;;;;;;;;;;;23.00;86.90;;;23.51;45.99;98368.31;4903476;28;124241;-88
2023/05/09 11:22:14;;;;;;;;;;;23.10;87.30;;;23.53;45.81;98365.84;4901922;28;119647;-85
2023/05/09 11:25:04;;;;;;;;;;;23.10;87.00;;;23.49;45.92;98359.44;4893312;28;118989;-87
2023/05/09 11:27:50;;;;;;;;;;;23.00;86.60;;;23.52;46.18;98347.34;4903665;28;124159;-86
2023/05/09 11:30:25;;;;;;;;;;;23.10;86.90;;;23.59;45.42;98338.84;4907277;28;123931;-89
2023/05/09 11:32:59;;;;;;;;;;;23.20;86.50;;;23.71;44.95;98329.94;4902486;28;119639;-90
2023/05/09 11:35:26;;;;;;;;;;;23.20;85.90;;;23.80;44.93;98327.47;4904251;28;119945;-88
2023/05/09 11:38:02;;;;;;;;;;;23.30;85.90;;;23.95;45.02;98333.81;4905265;28;124480;-87
2023/05/09 11:40:36;;;;;;;;;;;23.40;86.10;;;24.07;44.25;98321.22;4907433;28;124312;-87
2023/05/09 11:43:02;;;;;;;;;;;23.50;85.20;;;24.18;43.66;98316.31;4892835;28;118555;-88
2023/05/09 11:45:37;;;;;;;;;;;23.60;84.60;;;24.34;44.04;98317.78;4906615;28;117077;-88
2023/05/09 11:48:13;;;;;;;;;;;23.70;84.70;;;24.39;42.73;98315.28;4905703;28;124290;-88
2023/05/09 11:50:40;;;;;;;;;;;23.90;82.80;;;24.42;42.71;98308.00;4895314;28;123556;-86
2023/05/09 11:53:14;;;;;;;;;;;23.90;82.50;;;24.45;42.34;98301.59;4900433;28;119675;-87
2023/05/09 11:55:40;;;;;;;;;;;24.00;82.10;;;24.47;42.29;98301.94;4897343;28;119071;-85
2023/05/09 11:58:07;;;;;;;;;;;24.00;81.30;;;24.52;41.85;98303.53;4902752;28;123593;-87
2023/05/09 12:00:47;;;;;;;;;;;24.00;81.00;;;24.53;41.44;98302.28;4889379;28;123227;-88
2023/05/09 12:03:13;;;;;;;;;;;24.10;80.90;;;24.59;41.70;98295.78;4892278;28;119674;-88
2023/05/09 12:05:41;;;;;;;;;;;24.20;81.20;;;24.67;41.28;98288.84;4895572;28;118763;-87
2023/05/09 12:08:14;;;;;;;;;;;24.20;80.30;;;24.75;41.17;98277.47;4901736;28;122652;-89
2023/05/09 12:10:40;;;;;;;;;;;24.30;79.90;;;24.84;41.21;98272.09;4897599;28;123076;-89
2023/05/09 12:13:14;;;;;;;;;;;24.30;79.80;;;24.98;40.31;98269.09;4883800;28;118395;-88
2023/05/09 12:15:40;;;;;;;;;;;24.40;79.60;;;25.09;40.22;98269.78;4906813;28;119147;-88
2023/05/09 12:18:07;;;;;;;;;;;24.50;79.10;;;25.17;40.50;98261.22;4891931;28;123515;-87
2023/05/09 12:20:41;;;;;;;;;;;24.60;79.00;;;25.23;40.47;98253.91;4908305;28;123885;-87
2023/05/09 12:23:13;;;;;;;;;;;24.70;78.90;;;25.30;40.33;98254.56;4899039;28;120570;-87
2023/05/09 12:25:53;;;;;;;;;;;24.80;79.00;;;25.39;40.38;98241.94;4923372;28;119724;-86
2023/05/09 12:28:26;;;;;;;;;;;24.90;79.20;;;25.43;40.01;98246.31;4906769;28;124854;-87
2023/05/09 12:30:53;;;;;;;;;;;24.90;78.70;;;25.47;40.53;98244.25;4896848;28;123749;-87
2023/05/09 12:33:25;;;;;;;;;;;24.90;78.50;;;25.52;39.68;98232.47;4907453;28;119255;-87
2023/05/09 12:36:07;;;;;;;;;;;25.00;77.70;;;25.54;40.11;98232.81;4905928;28;118741;-85
2023/05/09 12:38:37;;;;;;;;;;;25.00;78.10;;;25.57;39.48;98231.94;4898158;28;123822;-86